createdAt,value
2022-09-29T00:00:04.084Z,3.05
2022-09-29T00:02:05.815Z,3.90
2022-09-29T00:04:07.573Z,4.35
2022-09-29T00:06:17.709Z,3.42
2022-09-29T00:08:21.167Z,3.90
2022-09-29T00:10:23.894Z,2.80
2022-09-29T00:12:25.661Z,3.38
2022-09-29T00:14:27.307Z,3.08
2022-09-29T00:16:29.535Z,2.75
2022-09-29T00:18:32.296Z,2.75
2022-09-29T00:20:33.987Z,2.45
2022-09-29T00:22:35.639Z,2.60
2022-09-29T00:24:37.342Z,2.70
2022-09-29T00:26:39.188Z,2.70
2022-09-29T00:28:45.609Z,1.92
2022-09-29T00:30:47.216Z,2.67
2022-09-29T00:32:48.853Z,3.03
2022-09-29T00:34:51.290Z,2.33
2022-09-29T00:36:52.914Z,2.08
2022-09-29T00:38:54.554Z,2.20
2022-09-29T00:40:56.715Z,2.25
2022-09-29T00:42:58.375Z,3.10
2022-09-29T00:45:06.915Z,2.45
2022-09-29T00:47:14.771Z,2.88
2022-09-29T00:49:51.863Z,2.63
2022-09-29T00:52:10.842Z,3.45
2022-09-29T00:54:12.667Z,2.47
2022-09-29T00:56:15.687Z,2.58
2022-09-29T00:58:39.637Z,2.60
2022-09-29T01:00:41.629Z,2.38
2022-09-29T01:02:46.936Z,3.13
2022-09-29T01:04:52.074Z,2.88
2022-09-29T01:06:56.579Z,3.13
2022-09-29T01:09:06.718Z,2.85
2022-09-29T01:11:10.360Z,2.78
2022-09-29T01:13:11.983Z,2.50
2022-09-29T01:15:14.819Z,3.28
2022-09-29T01:17:17.022Z,3.00
2022-09-29T01:19:52.285Z,2.22
2022-09-29T01:22:09.101Z,2.83
2022-09-29T01:24:48.079Z,3.00
2022-09-29T01:27:41.965Z,3.13
2022-09-29T01:29:53.230Z,3.22
2022-09-29T01:31:58.420Z,2.63
2022-09-29T01:34:12.455Z,2.95
2022-09-29T01:36:36.078Z,3.38
2022-09-29T01:38:51.520Z,2.35
2022-09-29T01:41:08.270Z,2.95
2022-09-29T01:43:33.713Z,1.92
2022-09-29T01:45:41.967Z,2.92
2022-09-29T01:47:47.732Z,2.63
2022-09-29T01:49:57.999Z,2.45
2022-09-29T01:52:09.898Z,2.70
2022-09-29T01:54:14.974Z,2.80
2022-09-29T01:56:43.418Z,2.90
2022-09-29T01:58:49.620Z,2.72
2022-09-29T02:00:55.429Z,2.20
2022-09-29T02:03:10.313Z,2.58
2022-09-29T02:05:18.230Z,2.33
2022-09-29T02:07:27.460Z,2.47
2022-09-29T02:09:34.519Z,2.50
2022-09-29T02:11:39.938Z,2.60
2022-09-29T02:13:57.406Z,2.85
2022-09-29T02:15:59.895Z,2.70
2022-09-29T02:18:06.356Z,2.95
2022-09-29T02:20:08.247Z,2.58
2022-09-29T02:22:09.920Z,2.22
2022-09-29T02:24:12.907Z,2.35
2022-09-29T02:26:14.771Z,2.35
2022-09-29T02:28:17.093Z,2.58
2022-09-29T02:30:18.862Z,2.40
2022-09-29T02:32:20.648Z,3.33
2022-09-29T02:34:22.940Z,2.75
2022-09-29T02:36:48.958Z,2.53
2022-09-29T02:39:02.173Z,3.10
2022-09-29T02:41:29.264Z,2.50
2022-09-29T02:43:36.823Z,2.30
2022-09-29T02:45:44.630Z,2.42
2022-09-29T02:48:09.737Z,2.70
2022-09-29T02:50:27.481Z,2.90
2022-09-29T02:53:04.634Z,2.30
2022-09-29T02:55:06.279Z,3.03
2022-09-29T02:57:36.561Z,2.15
2022-09-29T03:00:11.489Z,2.63
2022-09-29T03:02:16.417Z,2.70
2022-09-29T03:04:19.334Z,2.10
2022-09-29T03:06:21.624Z,2.17
2022-09-29T03:08:23.225Z,2.97
2022-09-29T03:10:29.294Z,2.78
2022-09-29T03:12:31.706Z,2.40
2022-09-29T03:14:33.368Z,2.28
2022-09-29T03:16:37.145Z,2.40
2022-09-29T03:18:38.865Z,2.90
2022-09-29T03:20:40.464Z,3.20
2022-09-29T03:22:42.122Z,2.40
2022-09-29T03:24:44.981Z,2.15
2022-09-29T03:26:46.629Z,3.05
2022-09-29T03:28:48.286Z,2.53
2022-09-29T03:30:50.006Z,2.70
2022-09-29T03:32:52.158Z,2.60
2022-09-29T03:34:53.907Z,3.17
2022-09-29T03:36:55.556Z,3.10
2022-09-29T03:38:57.298Z,2.83
2022-09-29T03:40:59.138Z,3.42
2022-09-29T03:43:00.857Z,2.97
2022-09-29T03:45:02.541Z,2.72
2022-09-29T03:47:04.245Z,3.35
2022-09-29T03:49:05.834Z,2.50
2022-09-29T03:51:07.444Z,2.75
2022-09-29T03:53:09.105Z,2.42
2022-09-29T03:55:10.802Z,2.92
2022-09-29T03:57:12.423Z,2.30
2022-09-29T03:59:15.238Z,2.75
2022-09-29T04:01:16.932Z,2.88
2022-09-29T04:03:18.742Z,2.40
2022-09-29T04:05:20.418Z,2.67
2022-09-29T04:07:22.134Z,2.88
2022-09-29T04:09:23.755Z,2.85
2022-09-29T04:11:25.318Z,2.67
2022-09-29T04:13:27.005Z,2.80
2022-09-29T04:15:28.603Z,2.88
2022-09-29T04:17:30.365Z,2.38
2022-09-29T04:19:32.014Z,2.53
2022-09-29T04:21:33.624Z,2.25
2022-09-29T04:23:36.534Z,2.78
2022-09-29T04:25:38.107Z,3.13
2022-09-29T04:27:39.741Z,4.50
2022-09-29T04:29:41.375Z,3.83
2022-09-29T04:31:43.072Z,3.30
2022-09-29T04:33:44.840Z,3.05
2022-09-29T04:35:46.995Z,3.03
2022-09-29T04:37:48.664Z,2.95
2022-09-29T04:39:50.941Z,2.75
2022-09-29T04:41:52.599Z,3.33
2022-09-29T04:43:54.227Z,2.92
2022-09-29T04:46:03.060Z,2.45
2022-09-29T04:48:04.938Z,3.10
2022-09-29T04:50:07.206Z,2.67
2022-09-29T04:52:11.967Z,2.50
2022-09-29T04:54:13.684Z,3.20
2022-09-29T04:56:15.308Z,2.90
2022-09-29T04:58:17.009Z,3.47
2022-09-29T05:00:18.795Z,2.83
2022-09-29T05:02:20.456Z,2.58
2022-09-29T05:04:22.174Z,3.70
2022-09-29T05:06:23.824Z,2.88
2022-09-29T05:08:25.448Z,2.88
2022-09-29T05:10:27.019Z,2.58
2022-09-29T05:12:28.624Z,2.10
2022-09-29T05:14:30.420Z,2.83
2022-09-29T05:16:32.425Z,2.95
2022-09-29T05:18:34.440Z,2.80
2022-09-29T05:20:42.844Z,2.95
2022-09-29T05:22:48.802Z,2.70
2022-09-29T05:24:52.420Z,3.10
2022-09-29T05:26:58.349Z,3.33
2022-09-29T05:29:00.385Z,2.83
2022-09-29T05:31:08.913Z,3.83
2022-09-29T05:33:10.760Z,3.00
2022-09-29T05:35:12.407Z,2.95
2022-09-29T05:37:14.292Z,3.58
2022-09-29T05:39:18.596Z,3.05
2022-09-29T05:41:23.529Z,3.38
2022-09-29T05:43:25.685Z,2.92
2022-09-29T05:45:27.755Z,3.08
2022-09-29T05:47:34.808Z,3.20
2022-09-29T05:49:36.981Z,3.58
2022-09-29T05:51:38.752Z,4.93
2022-09-29T05:53:40.812Z,4.65
2022-09-29T05:55:42.583Z,4.30
2022-09-29T05:57:48.472Z,4.15
2022-09-29T05:59:50.206Z,3.42
2022-09-29T06:01:52.587Z,3.80
2022-09-29T06:03:57.953Z,2.97
2022-09-29T06:06:14.513Z,3.10
2022-09-29T06:08:16.237Z,4.20
2022-09-29T06:10:18.712Z,3.45
2022-09-29T06:12:21.862Z,3.85
2022-09-29T06:14:23.685Z,3.85
2022-09-29T06:16:27.795Z,4.13
2022-09-29T06:18:32.715Z,3.03
2022-09-29T06:20:38.449Z,4.07
2022-09-29T06:22:40.111Z,4.47
2022-09-29T06:24:41.953Z,4.20
2022-09-29T06:26:44.164Z,4.85
2022-09-29T06:28:46.266Z,4.78
2022-09-29T06:30:47.912Z,4.65
2022-09-29T06:32:52.424Z,4.07
2022-09-29T06:35:12.741Z,4.28
2022-09-29T06:37:32.944Z,3.28
2022-09-29T06:39:34.693Z,4.07
2022-09-29T06:41:36.534Z,5.88
2022-09-29T06:43:38.274Z,5.70
2022-09-29T06:45:40.217Z,7.97
2022-09-29T06:47:42.134Z,5.90
2022-09-29T06:49:55.462Z,5.60
2022-09-29T06:52:06.909Z,4.35
2022-09-29T06:54:15.784Z,4.18
2022-09-29T06:56:18.585Z,4.60
2022-09-29T06:58:20.969Z,4.47
2022-09-29T07:00:22.602Z,4.65
2022-09-29T07:02:24.279Z,4.47
2022-09-29T07:04:25.926Z,4.45
2022-09-29T07:06:28.406Z,4.68
2022-09-29T07:08:31.189Z,5.10
2022-09-29T07:10:35.723Z,5.20
2022-09-29T07:12:37.387Z,4.10
2022-09-29T07:14:39.124Z,5.75
2022-09-29T07:16:40.932Z,5.03
2022-09-29T07:18:43.476Z,5.85
2022-09-29T07:20:45.273Z,5.53
2022-09-29T07:22:47.721Z,6.35
2022-09-29T07:24:51.062Z,5.63
2022-09-29T07:26:52.850Z,5.95
2022-09-29T07:28:54.611Z,5.80
2022-09-29T07:31:14.225Z,5.45
2022-09-29T07:33:28.851Z,6.72
2022-09-29T07:35:40.230Z,6.25
2022-09-29T07:37:42.460Z,6.97
2022-09-29T07:39:44.431Z,6.60
2022-09-29T07:41:46.170Z,6.07
2022-09-29T07:43:47.913Z,5.82
2022-09-29T07:45:51.496Z,5.63
2022-09-29T07:47:53.074Z,6.30
2022-09-29T07:49:54.589Z,5.03
2022-09-29T07:51:56.796Z,5.53
2022-09-29T07:54:03.921Z,4.90
2022-09-29T07:56:10.621Z,4.93
2022-09-29T07:58:12.217Z,5.95
2022-09-29T08:00:14.111Z,5.85
2022-09-29T08:02:15.678Z,5.85
2022-09-29T08:04:17.308Z,5.13
2022-09-29T08:06:20.812Z,5.68
2022-09-29T08:08:22.368Z,5.18
2022-09-29T08:10:24.026Z,6.28
2022-09-29T08:12:37.802Z,5.45
2022-09-29T08:14:44.501Z,7.85
2022-09-29T08:16:46.120Z,6.57
2022-09-29T08:18:47.813Z,7.82
2022-09-29T08:20:49.406Z,6.90
2022-09-29T08:22:51.133Z,6.35
2022-09-29T08:24:52.920Z,6.88
2022-09-29T08:26:58.141Z,7.07
2022-09-29T08:29:07.858Z,7.82
2022-09-29T08:31:13.550Z,8.25
2022-09-29T08:33:15.589Z,7.75
2022-09-29T08:35:17.255Z,7.30
2022-09-29T08:37:18.791Z,6.80
2022-09-29T08:39:22.893Z,7.07
2022-09-29T08:41:42.741Z,8.40
2022-09-29T08:43:44.664Z,7.03
2022-09-29T08:46:01.058Z,7.93
2022-09-29T08:48:24.093Z,9.60
2022-09-29T08:50:36.550Z,9.18
2022-09-29T08:52:52.041Z,9.77
2022-09-29T08:55:15.119Z,10.70
2022-09-29T08:57:20.914Z,10.77
2022-09-29T08:59:25.348Z,10.25
2022-09-29T09:01:38.459Z,10.02
2022-09-29T09:04:10.463Z,9.48
2022-09-29T09:08:44.469Z,7.93
2022-09-29T09:11:02.845Z,8.23
2022-09-29T09:13:11.763Z,6.78
2022-09-29T09:15:25.463Z,6.80
2022-09-29T09:17:45.278Z,6.93
2022-09-29T09:20:19.087Z,7.80
2022-09-29T09:22:23.151Z,7.35
2022-09-29T09:24:57.379Z,6.10
2022-09-29T09:26:59.261Z,7.50
2022-09-29T09:29:24.653Z,7.13
2022-09-29T09:31:40.532Z,6.65
2022-09-29T09:33:59.724Z,6.45
2022-09-29T09:36:34.587Z,6.97
2022-09-29T09:38:45.557Z,7.68
2022-09-29T09:40:49.472Z,6.18
2022-09-29T09:42:57.786Z,6.32
2022-09-29T09:45:03.440Z,6.53
2022-09-29T09:47:35.047Z,5.53
2022-09-29T09:49:41.282Z,5.88
2022-09-29T09:51:53.466Z,6.50
2022-09-29T09:53:56.795Z,5.85
2022-09-29T09:56:43.337Z,6.68
2022-09-29T09:59:11.781Z,5.43
2022-09-29T10:01:13.322Z,6.22
2022-09-29T10:03:16.544Z,7.47
2022-09-29T10:05:20.341Z,7.47
2022-09-29T10:07:24.559Z,7.28
2022-09-29T10:09:26.088Z,6.63
2022-09-29T10:11:31.720Z,6.68
2022-09-29T10:13:33.218Z,6.60
2022-09-29T10:15:37.601Z,6.00
2022-09-29T10:17:44.794Z,6.15
2022-09-29T10:19:55.296Z,6.10
2022-09-29T10:22:13.271Z,5.47
2022-09-29T10:24:28.209Z,6.88
2022-09-29T10:26:47.147Z,6.40
2022-09-29T10:28:51.379Z,5.57
2022-09-29T10:30:54.801Z,5.72
2022-09-29T10:33:00.313Z,5.85
2022-09-29T10:35:10.186Z,6.32
2022-09-29T10:37:35.137Z,6.25
2022-09-29T10:39:45.537Z,5.95
2022-09-29T10:41:54.215Z,6.40
2022-09-29T10:43:55.878Z,6.13
2022-09-29T10:45:58.848Z,5.63
2022-09-29T10:48:00.532Z,5.78
2022-09-29T10:50:14.089Z,6.93
2022-09-29T10:52:26.779Z,6.00
2022-09-29T10:54:32.494Z,5.72
2022-09-29T10:56:34.326Z,6.65
2022-09-29T10:58:52.574Z,5.20
2022-09-29T11:01:08.282Z,6.85
2022-09-29T11:03:15.767Z,4.93
2022-09-29T11:05:20.372Z,5.20
2022-09-29T11:07:22.564Z,5.55
2022-09-29T11:09:29.124Z,5.53
2022-09-29T11:11:31.702Z,4.97
2022-09-29T11:13:40.521Z,5.30
2022-09-29T11:15:41.996Z,5.25
2022-09-29T11:17:49.960Z,5.28
2022-09-29T11:19:58.037Z,6.00
2022-09-29T11:22:18.406Z,5.20
2022-09-29T11:24:29.142Z,5.50
2022-09-29T11:26:39.584Z,5.22
2022-09-29T11:29:19.200Z,5.72
2022-09-29T11:31:35.937Z,3.97
2022-09-29T11:34:01.705Z,4.82
2022-09-29T11:36:25.158Z,4.63
2022-09-29T11:38:45.996Z,5.95
2022-09-29T11:41:27.613Z,4.45
2022-09-29T11:43:37.943Z,3.38
2022-09-29T11:45:52.178Z,4.00
2022-09-29T11:48:21.624Z,4.30
2022-09-29T11:50:36.718Z,3.88
2022-09-29T11:53:02.933Z,3.88
2022-09-29T11:55:11.920Z,3.55
2022-09-29T11:57:19.253Z,3.53
2022-09-29T11:59:28.642Z,3.42
2022-09-29T12:01:59.907Z,2.67
2022-09-29T12:04:09.898Z,2.88
2022-09-29T12:06:21.133Z,2.30
2022-09-29T12:08:29.297Z,3.35
2022-09-29T12:10:45.443Z,2.90
2022-09-29T12:13:11.661Z,3.05
2022-09-29T12:15:25.968Z,2.20
2022-09-29T12:17:31.297Z,2.35
2022-09-29T12:19:37.439Z,2.10
2022-09-29T12:21:46.848Z,2.03
2022-09-29T12:23:48.815Z,2.38
2022-09-29T12:25:58.651Z,1.88
2022-09-29T12:28:10.377Z,2.30
2022-09-29T12:30:41.025Z,2.00
2022-09-29T12:33:06.543Z,1.95
2022-09-29T12:35:26.953Z,1.90
2022-09-29T12:37:36.568Z,1.95
2022-09-29T12:39:55.765Z,2.30
2022-09-29T12:42:24.331Z,1.90
2022-09-29T12:44:51.663Z,2.17
2022-09-29T12:47:20.309Z,2.00
2022-09-29T12:49:40.089Z,1.50
2022-09-29T12:51:45.572Z,1.52
2022-09-29T12:54:00.600Z,1.85
2022-09-29T12:56:21.096Z,1.30
2022-09-29T12:58:45.783Z,1.60
2022-09-29T13:00:52.895Z,1.58
2022-09-29T13:03:14.564Z,2.58
2022-09-29T13:05:33.619Z,3.38
2022-09-29T13:07:45.537Z,2.20
2022-09-29T13:10:35.237Z,1.75
2022-09-29T13:12:59.681Z,1.27
2022-09-29T13:15:23.132Z,1.30
2022-09-29T13:17:55.823Z,1.10
2022-09-29T13:20:25.086Z,1.40
2022-09-29T13:23:04.299Z,1.30
2022-09-29T13:25:05.807Z,2.38
2022-09-29T13:27:07.528Z,1.38
2022-09-29T13:29:16.296Z,1.33
2022-09-29T13:31:21.596Z,1.45
2022-09-29T13:33:25.305Z,1.00
2022-09-29T13:35:27.648Z,1.35
2022-09-29T13:37:42.767Z,1.38
2022-09-29T13:39:51.426Z,1.20
2022-09-29T13:41:55.717Z,1.13
2022-09-29T13:43:57.138Z,1.55
2022-09-29T13:46:30.497Z,0.93
2022-09-29T13:48:31.956Z,1.20
2022-09-29T13:50:46.298Z,0.90
2022-09-29T13:52:48.768Z,1.20
2022-09-29T13:54:50.416Z,1.58
2022-09-29T13:57:00.148Z,0.95
2022-09-29T13:59:02.247Z,1.35
2022-09-29T14:01:06.096Z,1.65
2022-09-29T14:03:22.495Z,1.17
2022-09-29T14:05:23.951Z,1.45
2022-09-29T14:07:38.997Z,1.30
2022-09-29T14:09:48.258Z,1.85
2022-09-29T14:11:52.052Z,1.00
2022-09-29T14:13:57.847Z,2.45
2022-09-29T14:16:14.368Z,1.83
2022-09-29T14:18:18.572Z,1.33
2022-09-29T14:20:23.122Z,1.58
2022-09-29T14:22:30.446Z,19.17
2022-09-29T14:24:38.094Z,4.93
2022-09-29T14:26:49.756Z,3.50
2022-09-29T14:28:53.242Z,4.18
2022-09-29T14:30:55.565Z,8.70
2022-09-29T14:33:01.908Z,25.58
2022-09-29T14:35:05.827Z,4.82
2022-09-29T14:37:18.342Z,4.80
2022-09-29T14:39:26.336Z,3.53
2022-09-29T14:41:34.281Z,2.85
2022-09-29T14:43:42.974Z,2.00
2022-09-29T14:46:34.092Z,2.85
2022-09-29T14:49:06.465Z,2.03
2022-09-29T14:51:42.145Z,3.17
2022-09-29T14:54:01.988Z,2.00
2022-09-29T14:56:15.692Z,1.92
2022-09-29T14:58:29.186Z,2.55
2022-09-29T15:00:48.706Z,1.98
2022-09-29T15:02:59.668Z,1.70
2022-09-29T15:05:29.958Z,2.35
2022-09-29T15:07:41.114Z,2.35
2022-09-29T15:09:48.386Z,2.40
2022-09-29T15:11:52.504Z,3.00
2022-09-29T15:13:55.454Z,1.75
2022-09-29T15:16:16.287Z,2.15
2022-09-29T15:19:01.339Z,2.47
2022-09-29T15:21:22.639Z,1.90
2022-09-29T15:23:44.356Z,1.70
2022-09-29T15:25:46.319Z,1.85
2022-09-29T15:27:50.928Z,1.45
2022-09-29T15:29:55.425Z,1.90
2022-09-29T15:31:56.910Z,1.90
2022-09-29T15:33:58.463Z,2.22
2022-09-29T15:36:02.938Z,1.90
2022-09-29T15:38:10.474Z,5.40
2022-09-29T15:40:20.758Z,4.05
2022-09-29T15:42:26.122Z,4.05
2022-09-29T15:44:32.977Z,4.28
2022-09-29T15:46:41.517Z,4.65
2022-09-29T15:49:05.115Z,4.22
2022-09-29T15:51:18.760Z,3.75
2022-09-29T15:53:20.305Z,3.65
2022-09-29T15:55:24.227Z,2.33
2022-09-29T15:57:49.916Z,1.90
2022-09-29T15:59:54.274Z,2.10
2022-09-29T16:02:04.309Z,1.90
2022-09-29T16:04:06.126Z,2.33
2022-09-29T16:06:19.651Z,1.83
2022-09-29T16:08:23.017Z,1.88
2022-09-29T16:10:28.556Z,2.08
2022-09-29T16:12:34.186Z,2.00
2022-09-29T16:14:35.768Z,2.22
2022-09-29T16:16:47.696Z,2.03
2022-09-29T16:18:50.400Z,2.53
2022-09-29T16:20:56.828Z,2.35
2022-09-29T16:23:09.770Z,3.10
2022-09-29T16:25:23.402Z,2.50
2022-09-29T16:27:54.213Z,2.00
2022-09-29T16:30:17.167Z,2.10
2022-09-29T16:32:44.887Z,2.60
2022-09-29T16:34:46.515Z,2.50
2022-09-29T16:36:56.454Z,2.10
2022-09-29T16:38:58.058Z,1.70
2022-09-29T16:40:59.507Z,1.92
2022-09-29T16:43:01.651Z,2.47
2022-09-29T16:45:03.251Z,2.08
2022-09-29T16:47:10.288Z,2.60
2022-09-29T16:49:32.427Z,1.92
2022-09-29T16:51:40.951Z,2.58
2022-09-29T16:53:42.508Z,2.33
2022-09-29T16:55:56.815Z,1.92
2022-09-29T16:58:16.335Z,2.35
2022-09-29T17:00:18.764Z,2.03
2022-09-29T17:02:20.597Z,1.55
2022-09-29T17:04:22.314Z,1.83
2022-09-29T17:06:23.937Z,2.53
2022-09-29T17:08:27.894Z,2.65
2022-09-29T17:10:29.426Z,2.47
2022-09-29T17:12:31.129Z,3.15
2022-09-29T17:14:32.607Z,2.83
2022-09-29T17:16:34.091Z,2.97
2022-09-29T17:18:35.646Z,2.78
2022-09-29T17:20:37.127Z,2.38
2022-09-29T17:22:38.772Z,1.63
2022-09-29T17:24:40.242Z,2.22
2022-09-29T17:27:03.166Z,1.58
2022-09-29T17:29:04.982Z,1.83
2022-09-29T17:31:10.347Z,1.83
2022-09-29T17:33:15.260Z,1.67
2022-09-29T17:35:18.383Z,1.55
2022-09-29T17:37:20.185Z,1.35
2022-09-29T17:39:22.028Z,1.55
2022-09-29T17:41:23.506Z,1.52
2022-09-29T17:43:24.971Z,1.40
2022-09-29T17:45:28.092Z,1.63
2022-09-29T17:47:31.167Z,1.73
2022-09-29T17:49:36.116Z,1.73
2022-09-29T17:51:37.604Z,1.77
2022-09-29T17:53:39.202Z,1.88
2022-09-29T17:55:41.517Z,1.63
2022-09-29T17:57:43.484Z,1.65
2022-09-29T17:59:45.072Z,1.60
2022-09-29T18:01:46.658Z,2.13
2022-09-29T18:03:48.831Z,1.95
2022-09-29T18:05:59.925Z,1.40
2022-09-29T18:08:03.625Z,1.63
2022-09-29T18:10:19.088Z,1.60
2022-09-29T18:12:20.618Z,1.55
2022-09-29T18:14:22.219Z,1.80
2022-09-29T18:16:24.886Z,1.65
2022-09-29T18:18:26.407Z,3.15
2022-09-29T18:20:30.091Z,6.72
2022-09-29T18:22:31.598Z,7.88
2022-09-29T18:24:34.250Z,7.75
2022-09-29T18:26:36.288Z,10.38
2022-09-29T18:28:37.830Z,10.32
2022-09-29T18:30:40.299Z,11.77
2022-09-29T18:32:41.782Z,11.98
2022-09-29T18:34:43.273Z,10.20
2022-09-29T18:36:45.249Z,9.25
2022-09-29T18:38:47.183Z,8.35
2022-09-29T18:40:48.844Z,8.27
2022-09-29T18:42:56.900Z,7.05
2022-09-29T18:44:58.369Z,9.02
2022-09-29T18:46:59.987Z,10.45
2022-09-29T18:49:03.900Z,11.68
2022-09-29T18:51:05.487Z,10.40
2022-09-29T18:53:06.979Z,9.20
2022-09-29T18:55:09.052Z,8.43
2022-09-29T18:57:12.387Z,9.02
2022-09-29T18:59:14.339Z,7.72
2022-09-29T19:01:18.971Z,8.63
2022-09-29T19:03:26.245Z,10.65
2022-09-29T19:05:31.957Z,10.50
2022-09-29T19:07:34.262Z,10.68
2022-09-29T19:09:35.875Z,10.48
2022-09-29T19:11:37.341Z,10.10
2022-09-29T19:13:39.644Z,10.15
2022-09-29T19:15:42.794Z,12.02
2022-09-29T19:17:45.380Z,11.20
2022-09-29T19:19:46.832Z,13.05
2022-09-29T19:21:48.287Z,12.68
2022-09-29T19:23:49.811Z,13.20
2022-09-29T19:25:52.033Z,15.18
2022-09-29T19:27:53.903Z,14.70
2022-09-29T19:29:57.503Z,14.60
2022-09-29T19:32:02.645Z,10.43
2022-09-29T19:34:04.137Z,9.55
2022-09-29T19:36:08.696Z,6.63
2022-09-29T19:38:10.207Z,5.88
2022-09-29T19:40:17.600Z,5.65
2022-09-29T19:42:19.083Z,4.75
2022-09-29T19:44:20.781Z,5.25
2022-09-29T19:46:22.666Z,4.55
2022-09-29T19:48:24.319Z,3.83
2022-09-29T19:50:44.503Z,3.65
2022-09-29T19:52:45.981Z,3.35
2022-09-29T19:54:47.468Z,3.38
2022-09-29T19:56:52.060Z,4.63
2022-09-29T19:58:53.555Z,4.60
2022-09-29T20:00:57.096Z,4.78
2022-09-29T20:02:58.605Z,4.90
2022-09-29T20:05:00.131Z,4.97
2022-09-29T20:07:02.807Z,5.00
2022-09-29T20:09:05.483Z,6.13
2022-09-29T20:11:11.300Z,6.50
2022-09-29T20:13:14.772Z,7.85
2022-09-29T20:15:16.319Z,10.20
2022-09-29T20:17:18.103Z,13.60
2022-09-29T20:19:21.084Z,17.30
2022-09-29T20:21:23.029Z,18.42
2022-09-29T20:23:24.810Z,15.85
2022-09-29T20:25:26.299Z,14.10
2022-09-29T20:27:28.036Z,14.82
2022-09-29T20:29:30.527Z,12.35
2022-09-29T20:31:33.337Z,11.63
2022-09-29T20:33:36.323Z,9.43
2022-09-29T20:35:39.224Z,7.88
2022-09-29T20:37:40.678Z,7.82
2022-09-29T20:39:42.380Z,7.40
2022-09-29T20:41:44.099Z,7.35
2022-09-29T20:43:51.158Z,8.50
2022-09-29T20:46:03.972Z,6.88
2022-09-29T20:48:05.518Z,8.18
2022-09-29T20:50:07.454Z,8.07
2022-09-29T20:52:08.936Z,7.10
2022-09-29T20:54:12.012Z,7.20
2022-09-29T20:56:17.539Z,7.15
2022-09-29T20:58:19.038Z,6.65
2022-09-29T21:00:20.460Z,6.90
2022-09-29T21:02:22.104Z,7.05
2022-09-29T21:04:24.039Z,5.95
2022-09-29T21:06:28.040Z,7.90
2022-09-29T21:08:29.759Z,7.53
2022-09-29T21:10:31.299Z,7.18
2022-09-29T21:12:32.962Z,7.60
2022-09-29T21:14:36.480Z,8.25
2022-09-29T21:16:41.781Z,8.63
2022-09-29T21:18:43.367Z,9.50
2022-09-29T21:20:44.801Z,9.50
2022-09-29T21:22:46.301Z,8.75
2022-09-29T21:24:47.769Z,8.02
2022-09-29T21:26:49.242Z,9.25
2022-09-29T21:28:53.309Z,9.90
2022-09-29T21:31:14.850Z,9.82
2022-09-29T21:33:16.635Z,11.52
2022-09-29T21:35:18.110Z,13.18
2022-09-29T21:37:19.645Z,15.00
2022-09-29T21:39:21.870Z,13.82
2022-09-29T21:41:26.346Z,12.88
2022-09-29T21:43:27.852Z,11.48
2022-09-29T21:45:29.359Z,9.90
2022-09-29T21:47:49.740Z,10.10
2022-09-29T21:49:53.265Z,12.85
2022-09-29T21:51:57.084Z,11.27
2022-09-29T21:54:01.792Z,13.13
2022-09-29T21:56:05.669Z,13.45
2022-09-29T21:58:07.202Z,10.18
2022-09-29T22:00:09.021Z,10.05
2022-09-29T22:02:10.627Z,10.32
2022-09-29T22:04:12.316Z,9.60
2022-09-29T22:06:16.515Z,7.63
2022-09-29T22:08:18.389Z,7.25
2022-09-29T22:10:19.884Z,7.82
2022-09-29T22:12:22.355Z,8.40
2022-09-29T22:14:24.446Z,7.28
2022-09-29T22:16:29.121Z,7.38
2022-09-29T22:18:41.336Z,7.10
2022-09-29T22:20:43.482Z,6.85
2022-09-29T22:22:44.950Z,7.38
2022-09-29T22:24:46.422Z,7.30
2022-09-29T22:26:48.164Z,6.88
2022-09-29T22:28:51.520Z,7.57
2022-09-29T22:30:53.639Z,7.30
2022-09-29T22:32:55.171Z,7.75
2022-09-29T22:34:56.623Z,7.82
2022-09-29T22:36:58.128Z,6.75
2022-09-29T22:38:59.882Z,7.68
2022-09-29T22:41:06.749Z,6.47
2022-09-29T22:43:08.849Z,7.38
2022-09-29T22:45:10.566Z,7.13
2022-09-29T22:47:12.084Z,8.27
2022-09-29T22:49:13.585Z,7.60
2022-09-29T22:51:15.160Z,8.52
2022-09-29T22:53:16.641Z,8.85
2022-09-29T22:55:18.182Z,7.95
2022-09-29T22:57:19.627Z,7.55
2022-09-29T22:59:21.312Z,7.20
2022-09-29T23:01:22.863Z,6.78
2022-09-29T23:03:24.359Z,6.82
2022-09-29T23:05:25.815Z,8.07
2022-09-29T23:07:27.403Z,8.57
2022-09-29T23:09:29.196Z,6.90
2022-09-29T23:11:32.735Z,6.88
2022-09-29T23:13:36.929Z,6.93
2022-09-29T23:15:38.580Z,7.28
2022-09-29T23:17:40.170Z,6.78
2022-09-29T23:19:42.405Z,5.68
2022-09-29T23:21:43.866Z,6.68
2022-09-29T23:23:46.037Z,6.05
2022-09-29T23:25:48.459Z,7.97
2022-09-29T23:27:49.983Z,6.90
2022-09-29T23:29:51.746Z,5.97
2022-09-29T23:31:53.286Z,6.38
2022-09-29T23:33:57.075Z,8.27
2022-09-29T23:36:12.825Z,8.48
2022-09-29T23:38:33.474Z,6.78
2022-09-29T23:40:34.898Z,7.88
2022-09-29T23:42:37.163Z,7.70
2022-09-29T23:44:40.800Z,7.22
2022-09-29T23:46:42.827Z,7.70
2022-09-29T23:48:44.696Z,7.90
2022-09-29T23:50:46.143Z,7.25
2022-09-29T23:52:47.599Z,7.40
2022-09-29T23:54:49.089Z,6.65
2022-09-29T23:56:52.160Z,6.63
2022-09-29T23:58:53.697Z,7.32
